Time;durP1;ratioP1;P1;durP2;ratioP2;P2;SDS_P1;SDS_P2;PMS_P1;PMS_P2;Temp;Humidity;BMP_temperature;BMP_pressure;BME280_temperature;BME280_humidity;BME280_pressure;Samples;Min_cycle;Max_cycle;Signal;HPM_P1;HPM_P2
2023/10/14 00:00:39;;;;;;;10.70;3.72;;;21.00;95.70;;;;;;6239748;23;20406;-79
2023/10/14 00:03:29;;;;;;;6.40;3.42;;;21.00;95.90;;;;;;6240445;23;20015;-79
2023/10/14 00:06:18;;;;;;;9.25;3.50;;;20.90;96.10;;;;;;6239521;23;20106;-78
2023/10/14 00:09:13;;;;;;;6.30;3.78;;;20.90;96.20;;;;;;6239266;23;20008;-77
2023/10/14 00:12:03;;;;;;;7.35;3.63;;;20.90;96.40;;;;;;6216878;23;20008;-78
2023/10/14 00:14:53;;;;;;;7.55;3.85;;;20.80;96.60;;;;;;6219450;23;20008;-78
2023/10/14 00:17:42;;;;;;;5.53;3.55;;;20.80;96.80;;;;;;6238961;23;20015;-78
2023/10/14 00:20:34;;;;;;;9.93;4.78;;;20.70;96.80;;;;;;6240175;23;20016;-75
2023/10/14 00:23:24;;;;;;;10.27;3.80;;;20.70;96.90;;;;;;6238310;23;20008;-74
2023/10/14 00:26:14;;;;;;;7.70;3.95;;;20.60;97.20;;;;;;6216609;23;20020;-74
2023/10/14 00:29:21;;;;;;;8.98;3.40;;;20.60;97.50;;;;;;6238891;23;20009;-74
2023/10/14 00:32:07;;;;;;;7.53;3.80;;;20.50;97.70;;;;;;6239173;23;20098;-75
2023/10/14 00:34:53;;;;;;;8.32;4.30;;;20.40;97.70;;;;;;6240394;23;20506;-73
2023/10/14 00:37:39;;;;;;;6.35;3.60;;;20.40;97.90;;;;;;6238759;23;20418;-73
2023/10/14 00:40:25;;;;;;;8.25;3.53;;;20.40;97.90;;;;;;6240880;23;20016;-74
2023/10/14 00:43:11;;;;;;;5.60;3.90;;;20.30;98.10;;;;;;6240030;23;20085;-72
2023/10/14 00:45:57;;;;;;;12.25;5.30;;;20.20;98.10;;;;;;6238207;23;20024;-74
2023/10/14 00:48:47;;;;;;;9.80;3.55;;;20.10;98.20;;;;;;6239839;23;20008;-76
2023/10/14 00:51:33;;;;;;;6.43;3.42;;;20.10;98.40;;;;;;6239378;23;20012;-75
2023/10/14 00:54:28;;;;;;;8.90;4.63;;;20.10;98.50;;;;;;6238000;23;20015;-77
2023/10/14 00:57:20;;;;;;;6.75;3.47;;;20.00;98.70;;;;;;6238132;22;20047;-76
2023/10/14 01:00:11;;;;;;;5.88;3.40;;;20.00;98.60;;;;;;6238682;23;20015;-66
2023/10/14 01:02:57;;;;;;;5.82;3.60;;;20.00;98.60;;;;;;6238668;23;20023;-68
2023/10/14 01:05:45;;;;;;;6.28;3.80;;;19.90;98.60;;;;;;6240346;23;20017;-67
2023/10/14 01:08:31;;;;;;;7.15;3.63;;;19.90;98.50;;;;;;6237667;23;20218;-67
2023/10/14 01:11:24;;;;;;;9.65;3.88;;;19.90;98.80;;;;;;6240717;23;20036;-67
2023/10/14 01:14:14;;;;;;;8.35;4.45;;;19.90;98.60;;;;;;6238146;23;20016;-67
2023/10/14 01:17:01;;;;;;;5.70;3.20;;;20.00;98.80;;;;;;6238937;23;20081;-68
2023/10/14 01:19:47;;;;;;;9.02;3.72;;;19.90;98.80;;;;;;6238025;23;20016;-68
2023/10/14 01:22:34;;;;;;;8.55;3.10;;;19.90;98.90;;;;;;6238482;23;20095;-68
2023/10/14 01:25:24;;;;;;;8.15;3.90;;;19.90;99.00;;;;;;6237915;23;20016;-67
2023/10/14 01:28:15;;;;;;;5.07;3.17;;;19.90;99.00;;;;;;6238484;23;20047;-67
2023/10/14 01:31:30;;;;;;;6.78;3.50;;;19.90;99.10;;;;;;6240829;23;20004;-66
2023/10/14 01:34:28;;;;;;;;;;;19.90;99.00;;;;;;6238821;23;20454;-68
2023/10/14 01:37:19;;;;;;;8.15;3.92;;;19.90;98.80;;;;;;6238750;23;19908;-68
2023/10/14 01:43:10;;;;;;;6.13;3.47;;;19.90;99.00;;;;;;6237647;23;20015;-68
2023/10/14 01:48:44;;;;;;;8.50;3.42;;;19.80;99.10;;;;;;6239671;23;20022;-67
2023/10/14 01:51:33;;;;;;;7.82;3.67;;;19.90;99.10;;;;;;6238966;23;20054;-67
2023/10/14 01:54:22;;;;;;;6.65;3.60;;;19.90;99.10;;;;;;6238689;23;20030;-67
2023/10/14 01:57:16;;;;;;;7.38;3.20;;;19.90;99.20;;;;;;6239281;22;20008;-67
2023/10/14 02:03:10;;;;;;;6.50;2.58;;;19.90;99.40;;;;;;6238354;23;20011;-69
2023/10/14 02:05:57;;;;;;;7.57;3.15;;;19.80;99.40;;;;;;6238241;23;20345;-68
2023/10/14 02:08:44;;;;;;;8.48;3.95;;;19.80;99.60;;;;;;6238731;23;20004;-68
2023/10/14 02:11:33;;;;;;;5.97;3.47;;;19.80;99.60;;;;;;6215340;23;20008;-67
2023/10/14 02:14:22;;;;;;;6.22;2.85;;;19.80;99.70;;;;;;6239113;23;20014;-67
2023/10/14 02:17:10;;;;;;;7.15;2.92;;;19.80;99.70;;;;;;6237927;23;20015;-68
2023/10/14 02:20:06;;;;;;;9.77;3.30;;;19.80;99.80;;;;;;6240244;23;20378;-69
2023/10/14 02:22:52;;;;;;;7.13;4.40;;;19.80;99.80;;;;;;6241671;23;20385;-70
2023/10/14 02:25:38;;;;;;;10.27;3.72;;;19.80;99.90;;;;;;6241293;23;20019;-69
2023/10/14 02:28:39;;;;;;;6.78;3.42;;;19.80;99.90;;;;;;6237691;23;20015;-69
2023/10/14 02:31:29;;;;;;;5.72;3.47;;;19.70;99.90;;;;;;6240124;23;20023;-68
2023/10/14 02:34:15;;;;;;;6.38;3.03;;;19.80;99.90;;;;;;6240076;23;20012;-69
2023/10/14 02:37:05;;;;;;;6.13;3.35;;;19.70;99.90;;;;;;6237430;23;20000;-70
2023/10/14 02:39:51;;;;;;;7.68;3.65;;;19.70;99.90;;;;;;6238495;23;20008;-69
2023/10/14 02:42:39;;;;;;;8.73;3.97;;;19.70;99.90;;;;;;6240680;23;20019;-69
2023/10/14 02:45:26;;;;;;;6.03;4.18;;;19.70;99.90;;;;;;6240764;23;20346;-69
2023/10/14 02:48:13;;;;;;;7.53;2.92;;;19.70;99.90;;;;;;6239692;23;20452;-69
2023/10/14 02:51:06;;;;;;;5.43;3.65;;;19.70;99.90;;;;;;6240218;23;20022;-68
2023/10/14 02:53:52;;;;;;;5.57;2.90;;;19.70;99.90;;;;;;6241669;23;20012;-68
2023/10/14 02:57:29;;;;;;;9.73;4.38;;;19.70;99.90;;;;;;6241717;22;20020;-69
2023/10/14 02:59:58;;;;;;;11.50;4.10;;;19.70;99.90;;;;;;6237213;22;20008;-68
2023/10/14 03:02:54;;;;;;;7.03;3.20;;;19.70;99.80;;;;;;6242181;23;20012;-68
2023/10/14 03:05:52;;;;;;;6.55;4.03;;;19.70;99.80;;;;;;6240670;23;20030;-69
2023/10/14 03:08:39;;;;;;;5.63;3.30;;;19.70;99.70;;;;;;6239503;23;20016;-68
2023/10/14 03:11:26;;;;;;;6.72;3.10;;;19.70;99.60;;;;;;6239085;23;20058;-70
2023/10/14 03:14:12;;;;;;;5.88;3.15;;;19.70;99.50;;;;;;6242647;23;20484;-69
2023/10/14 03:16:58;;;;;;;7.28;3.63;;;19.70;99.50;;;;;;6217907;23;20016;-68
2023/10/14 03:19:44;;;;;;;6.28;3.30;;;19.70;99.30;;;;;;6240117;23;20008;-69
2023/10/14 03:22:31;;;;;;;6.68;3.35;;;19.80;99.20;;;;;;6240869;23;20008;-69
2023/10/14 03:25:23;;;;;;;5.97;3.22;;;19.80;99.10;;;;;;6239923;23;20019;-70
2023/10/14 03:28:12;;;;;;;6.20;3.35;;;19.80;98.90;;;;;;6218297;23;20146;-69
2023/10/14 03:30:58;;;;;;;7.63;3.40;;;19.80;98.90;;;;;;6238957;23;20004;-68
2023/10/14 03:33:44;;;;;;;9.25;3.53;;;19.80;98.90;;;;;;6218472;23;20012;-71
2023/10/14 03:36:31;;;;;;;6.07;3.60;;;19.80;98.80;;;;;;6242903;23;20486;-70
2023/10/14 03:39:37;;;;;;;7.20;3.50;;;19.90;98.80;;;;;;6240731;23;20020;-70
2023/10/14 03:42:23;;;;;;;5.53;3.33;;;19.90;98.70;;;;;;6239942;23;20024;-70
2023/10/14 03:45:20;;;;;;;6.43;3.88;;;19.90;98.70;;;;;;6219036;23;20016;-69
2023/10/14 03:48:08;;;;;;;11.70;4.35;;;20.00;98.70;;;;;;6241110;23;20095;-69
2023/10/14 03:51:02;;;;;;;7.78;4.18;;;20.00;98.70;;;;;;6241420;23;20019;-69
2023/10/14 03:53:52;;;;;;;8.80;3.33;;;20.00;98.60;;;;;;6238782;23;20095;-69
2023/10/14 03:56:45;;;;;;;8.60;3.97;;;20.10;98.60;;;;;;6220751;23;20231;-70
2023/10/14 03:59:33;;;;;;;8.50;3.72;;;20.10;98.60;;;;;;6241442;23;20023;-69
2023/10/14 04:02:24;;;;;;;7.65;3.72;;;20.10;98.50;;;;;;6238720;23;20085;-70
2023/10/14 04:05:10;;;;;;;9.02;3.10;;;20.10;98.50;;;;;;6239737;23;20086;-70
2023/10/14 04:07:57;;;;;;;8.00;3.97;;;20.10;98.50;;;;;;6240595;23;20478;-70
2023/10/14 04:10:45;;;;;;;8.98;3.25;;;20.10;98.50;;;;;;6241199;23;20012;-69
2023/10/14 04:13:34;;;;;;;7.63;3.65;;;20.10;98.50;;;;;;6239430;23;20599;-70
2023/10/14 04:16:27;;;;;;;9.63;3.90;;;20.10;98.50;;;;;;6240737;23;20382;-70
2023/10/14 04:19:27;;;;;;;6.50;3.65;;;20.10;98.50;;;;;;6239878;23;20319;-70
2023/10/14 04:28:18;;;;;;;7.32;4.05;;;20.10;98.60;;;;;;6240922;23;20027;-69
2023/10/14 04:31:06;;;;;;;8.20;4.32;;;20.10;98.60;;;;;;6239044;23;20062;-69
2023/10/14 04:33:54;;;;;;;7.82;4.18;;;20.10;98.60;;;;;;6238841;23;20046;-68
2023/10/14 04:36:53;;;;;;;6.22;4.10;;;20.10;98.60;;;;;;6238494;23;20015;-69
2023/10/14 04:39:42;;;;;;;9.43;4.07;;;20.10;98.70;;;;;;6238226;23;20019;-70
2023/10/14 04:42:43;;;;;;;11.43;4.43;;;20.10;98.60;;;;;;6240413;23;20099;-70
2023/10/14 04:45:32;;;;;;;5.70;3.30;;;20.10;98.50;;;;;;6240971;23;20032;-69
2023/10/14 04:48:27;;;;;;;8.55;4.35;;;20.10;98.40;;;;;;6239779;23;20629;-69
2023/10/14 04:51:16;;;;;;;5.78;3.00;;;20.10;98.40;;;;;;6241146;23;20012;-69
2023/10/14 04:54:02;;;;;;;7.90;3.55;;;20.10;98.40;;;;;;6240416;23;20023;-70
2023/10/14 04:56:48;;;;;;;6.45;3.17;;;20.10;98.30;;;;;;6236791;22;20016;-70
2023/10/14 04:59:36;;;;;;;6.70;3.35;;;20.10;98.50;;;;;;6236662;23;20461;-68
2023/10/14 05:02:24;;;;;;;8.65;3.40;;;20.10;98.30;;;;;;6238022;23;20012;-68
2023/10/14 05:05:10;;;;;;;9.57;3.95;;;20.10;98.60;;;;;;6239383;23;20008;-68
2023/10/14 05:07:58;;;;;;;12.80;3.97;;;20.10;99.00;;;;;;6237595;23;20427;-68
2023/10/14 05:10:47;;;;;;;7.30;3.92;;;20.00;99.30;;;;;;6240935;23;20438;-67
2023/10/14 05:13:33;;;;;;;8.60;4.60;;;19.90;99.80;;;;;;6238799;23;20094;-67
2023/10/14 05:16:22;;;;;;;9.48;4.97;;;19.70;99.90;;;;;;6239114;23;20251;-66
2023/10/14 05:19:11;;;;;;;15.40;4.57;;;19.60;99.90;;;;;;6239088;23;20319;-66
2023/10/14 05:22:05;;;;;;;11.65;4.53;;;19.60;99.90;;;;;;6238033;23;20046;-65
2023/10/14 05:24:54;;;;;;;9.43;4.93;;;19.50;99.90;;;;;;6237607;23;20008;-67
2023/10/14 05:27:46;;;;;;;7.75;4.53;;;19.40;99.90;;;;;;6240579;23;20099;-66
2023/10/14 05:30:35;;;;;;;12.90;4.07;;;19.30;99.90;;;;;;6237801;23;20008;-67
2023/10/14 05:33:21;;;;;;;7.15;4.40;;;19.20;99.90;;;;;;6238164;23;20012;-67
2023/10/14 05:36:07;;;;;;;6.90;3.28;;;19.20;99.90;;;;;;6237775;23;20532;-66
2023/10/14 05:38:53;;;;;;;7.32;4.15;;;19.10;99.90;;;;;;6237030;23;20012;-67
2023/10/14 05:41:39;;;;;;;4.25;3.00;;;19.00;99.90;;;;;;6238517;23;20031;-66
2023/10/14 05:44:27;;;;;;;6.72;3.50;;;19.00;99.90;;;;;;6238520;23;20008;-67
2023/10/14 05:47:19;;;;;;;7.43;3.60;;;18.90;99.90;;;;;;6238295;23;20047;-67
2023/10/14 05:50:08;;;;;;;4.60;3.05;;;18.80;99.90;;;;;;6240251;23;20008;-67
2023/10/14 05:52:54;;;;;;;2.67;2.10;;;18.70;99.90;;;;;;6240589;23;20458;-72
2023/10/14 05:55:39;;;;;;;2.70;1.45;;;18.50;99.90;;;;;;6237960;22;20034;-66
2023/10/14 05:58:28;;;;;;;8.00;1.30;;;18.20;99.90;;;;;;6237998;23;20103;-68
2023/10/14 06:01:19;;;;;;;1.27;1.00;;;18.00;99.90;;;;;;6235464;23;20008;-67
2023/10/14 06:04:05;;;;;;;1.95;1.05;;;17.80;99.90;;;;;;6240392;23;20012;-68
2023/10/14 06:06:51;;;;;;;1.63;0.95;;;17.70;99.90;;;;;;6238341;23;20358;-67
2023/10/14 06:09:38;;;;;;;1.05;0.70;;;17.50;99.90;;;;;;6237951;23;20066;-68
2023/10/14 06:12:24;;;;;;;1.70;0.88;;;17.30;99.90;;;;;;6240358;23;20070;-67
2023/10/14 06:15:11;;;;;;;1.60;0.85;;;17.20;99.90;;;;;;6218140;23;20004;-68
2023/10/14 06:17:57;;;;;;;1.10;0.70;;;17.00;99.90;;;;;;6237808;23;20020;-68
2023/10/14 06:20:45;;;;;;;2.30;1.05;;;16.90;99.90;;;;;;6238492;23;20020;-68
2023/10/14 06:23:32;;;;;;;1.23;0.82;;;16.80;99.90;;;;;;6237497;23;20454;-68
2023/10/14 06:26:18;;;;;;;1.13;0.80;;;16.70;99.90;;;;;;6238499;23;20070;-67
2023/10/14 06:29:05;;;;;;;1.65;1.00;;;16.60;99.90;;;;;;6238575;23;20008;-67
2023/10/14 06:31:51;;;;;;;1.75;0.90;;;16.50;99.90;;;;;;6238255;23;20008;-68
2023/10/14 06:34:39;;;;;;;1.90;0.85;;;16.40;99.90;;;;;;6238640;23;20074;-68
2023/10/14 06:37:25;;;;;;;1.55;0.75;;;16.30;99.90;;;;;;6238375;23;20070;-67
2023/10/14 06:40:12;;;;;;;2.55;1.00;;;16.30;99.90;;;;;;6238155;23;20027;-67
2023/10/14 06:43:00;;;;;;;1.83;0.80;;;16.20;99.90;;;;;;6240512;23;20056;-67
2023/10/14 06:45:51;;;;;;;2.42;1.17;;;16.20;99.90;;;;;;6237774;23;20106;-66
2023/10/14 06:48:38;;;;;;;1.70;0.90;;;16.20;99.90;;;;;;6238165;23;20020;-67
2023/10/14 06:51:24;;;;;;;2.70;1.02;;;16.20;99.90;;;;;;6238225;23;20469;-67
2023/10/14 06:54:13;;;;;;;1.95;1.17;;;16.20;99.90;;;;;;6236332;23;20378;-68
2023/10/14 06:57:02;;;;;;;0.73;0.60;;;16.20;99.90;;;;;;6239013;22;20008;-68
2023/10/14 06:59:48;;;;;;;1.38;0.90;;;16.10;99.90;;;;;;6240221;23;20019;-68
2023/10/14 07:02:35;;;;;;;1.55;0.98;;;16.10;99.90;;;;;;6238112;23;20346;-71
2023/10/14 07:05:21;;;;;;;1.05;0.80;;;16.10;99.90;;;;;;6238438;23;20018;-70
2023/10/14 07:08:07;;;;;;;1.48;0.77;;;16.00;99.90;;;;;;6237350;23;20016;-68
2023/10/14 07:10:55;;;;;;;3.05;1.35;;;16.10;99.90;;;;;;6238073;23;20401;-69
2023/10/14 07:13:42;;;;;;;3.33;1.20;;;16.10;99.90;;;;;;6240355;23;20482;-69
2023/10/14 07:16:28;;;;;;;1.67;0.90;;;16.10;99.90;;;;;;6239762;23;20446;-69
2023/10/14 07:19:14;;;;;;;3.47;1.23;;;16.20;99.90;;;;;;6237337;23;20008;-68
2023/10/14 07:22:00;;;;;;;3.30;1.20;;;16.10;99.90;;;;;;6235161;23;20016;-71
2023/10/14 07:24:50;;;;;;;3.47;1.20;;;16.10;99.90;;;;;;6236907;23;20012;-65
2023/10/14 07:27:39;;;;;;;2.67;1.20;;;16.20;99.90;;;;;;6238705;23;20019;-67
2023/10/14 07:30:29;;;;;;;1.75;1.05;;;16.20;99.90;;;;;;6239424;23;20496;-67
2023/10/14 07:33:17;;;;;;;4.50;1.27;;;16.20;99.90;;;;;;6241566;23;20012;-66
2023/10/14 07:36:06;;;;;;;3.92;1.52;;;16.20;99.90;;;;;;6241769;23;20016;-64
2023/10/14 07:38:56;;;;;;;2.53;1.20;;;16.20;99.90;;;;;;6241753;23;20023;-73
2023/10/14 07:41:42;;;;;;;2.55;1.38;;;16.10;99.90;;;;;;6239258;23;20095;-72
2023/10/14 07:44:28;;;;;;;2.25;1.10;;;16.10;99.90;;;;;;6240436;23;20019;-78
2023/10/14 07:47:14;;;;;;;2.08;1.10;;;16.00;99.90;;;;;;6237922;23;20016;-77
2023/10/14 07:50:00;;;;;;;2.80;1.50;;;16.00;99.90;;;;;;6239425;23;20107;-80
2023/10/14 07:52:46;;;;;;;5.28;1.90;;;16.00;99.90;;;;;;6240156;23;20086;-77
2023/10/14 07:55:35;;;;;;;8.93;5.20;;;16.00;99.90;;;;;;6240157;22;20083;-73
2023/10/14 07:58:23;;;;;;;11.60;5.65;;;16.10;99.90;;;;;;6239327;23;20504;-72
2023/10/14 08:01:16;;;;;;;6.40;4.35;;;16.00;99.90;;;;;;6240139;23;20086;-72
2023/10/14 08:04:04;;;;;;;14.50;7.65;;;16.00;99.90;;;;;;6239606;23;20040;-71
2023/10/14 08:06:50;;;;;;;4.75;2.50;;;16.00;99.90;;;;;;6238752;23;20248;-71
2023/10/14 08:09:39;;;;;;;6.07;3.03;;;16.00;99.90;;;;;;6238613;23;20051;-72
2023/10/14 08:12:28;;;;;;;3.72;2.15;;;16.00;99.90;;;;;;6237940;23;20086;-70
2023/10/14 08:15:17;;;;;;;2.95;1.65;;;16.00;99.90;;;;;;6238281;23;20008;-70
2023/10/14 08:18:07;;;;;;;5.13;2.85;;;16.10;99.90;;;;;;6238867;23;20016;-75
2023/10/14 08:20:54;;;;;;;4.20;1.85;;;16.10;99.90;;;;;;6240052;23;20035;-65
2023/10/14 08:23:40;;;;;;;5.32;1.20;;;16.20;99.90;;;;;;6240759;23;20070;-64
2023/10/14 08:26:26;;;;;;;3.58;1.67;;;16.30;99.90;;;;;;6238241;23;20186;-65
2023/10/14 08:29:12;;;;;;;3.90;1.77;;;16.40;99.90;;;;;;6241085;23;20406;-66
2023/10/14 08:31:58;;;;;;;2.67;1.33;;;16.50;99.90;;;;;;6239191;23;20449;-64
2023/10/14 08:34:45;;;;;;;2.83;1.45;;;16.50;99.90;;;;;;6238985;23;20385;-65
2023/10/14 08:37:31;;;;;;;6.28;1.58;;;16.50;99.90;;;;;;6238604;23;20354;-64
2023/10/14 08:40:25;;;;;;;3.20;1.35;;;16.60;99.90;;;;;;6237825;23;20020;-65
2023/10/14 08:43:16;;;;;;;4.77;1.77;;;16.70;99.90;;;;;;6239513;23;20087;-65
2023/10/14 08:46:03;;;;;;;4.47;1.80;;;16.70;99.90;;;;;;6237648;23;20501;-67
2023/10/14 08:48:52;;;;;;;8.05;1.95;;;16.80;99.90;;;;;;6241691;23;20271;-67
2023/10/14 08:51:39;;;;;;;7.03;1.70;;;16.70;99.90;;;;;;6237425;23;20027;-66
2023/10/14 08:54:25;;;;;;;5.55;1.75;;;16.80;99.90;;;;;;6241122;23;20019;-66
2023/10/14 08:57:11;;;;;;;6.47;2.00;;;16.90;99.90;;;;;;6236853;22;20093;-66
2023/10/14 08:59:57;;;;;;;6.32;1.65;;;16.80;99.90;;;;;;6237590;23;20055;-65
2023/10/14 09:02:44;;;;;;;8.45;2.20;;;16.80;99.90;;;;;;6238791;23;20114;-66
2023/10/14 09:05:31;;;;;;;4.38;1.83;;;16.90;99.90;;;;;;6238972;23;20012;-67
2023/10/14 09:08:21;;;;;;;4.65;2.25;;;17.00;99.90;;;;;;6239939;23;20107;-68
2023/10/14 09:11:25;;;;;;;6.10;1.90;;;16.90;99.40;;;;;;6238818;23;20012;-65
2023/10/14 09:14:14;;;;;;;6.80;1.58;;;17.00;99.20;;;;;;6237269;23;20016;-67
2023/10/14 09:17:03;;;;;;;3.30;1.40;;;17.00;99.10;;;;;;6239844;23;20012;-66
2023/10/14 09:19:50;;;;;;;5.20;1.75;;;17.00;98.90;;;;;;6237733;23;20004;-66
2023/10/14 09:22:36;;;;;;;6.60;1.60;;;17.10;99.10;;;;;;6238092;23;20078;-65
2023/10/14 09:25:22;;;;;;;6.15;1.83;;;17.10;98.90;;;;;;6239562;23;20486;-65
2023/10/14 09:28:09;;;;;;;9.15;2.17;;;17.10;98.60;;;;;;6238834;23;20101;-66
2023/10/14 09:30:57;;;;;;;7.65;2.00;;;17.10;98.60;;;;;;6238183;23;20016;-65
2023/10/14 09:33:44;;;;;;;3.85;1.83;;;17.10;98.50;;;;;;6238670;23;20004;-65
2023/10/14 09:36:35;;;;;;;10.60;1.63;;;17.10;97.80;;;;;;6239285;23;20004;-66
2023/10/14 09:39:28;;;;;;;4.68;1.42;;;17.10;97.50;;;;;;6237081;23;20069;-64
2023/10/14 09:42:15;;;;;;;9.45;1.98;;;17.10;97.40;;;;;;6238396;23;20107;-65
2023/10/14 09:45:10;;;;;;;6.50;2.15;;;17.10;97.50;;;;;;6238051;23;20012;-66
2023/10/14 09:47:57;;;;;;;5.38;1.77;;;17.20;97.60;;;;;;6237887;23;20361;-65
2023/10/14 09:50:44;;;;;;;8.23;2.53;;;17.20;97.40;;;;;;6236095;23;20016;-66
2023/10/14 09:53:36;;;;;;;4.18;1.45;;;17.30;97.10;;;;;;6237087;23;20016;-66
2023/10/14 09:56:23;;;;;;;3.45;1.40;;;17.20;96.60;;;;;;6237889;22;20004;-65
2023/10/14 09:59:10;;;;;;;7.07;1.73;;;17.20;96.00;;;;;;6237931;23;20674;-65
2023/10/14 10:01:56;;;;;;;7.45;1.55;;;17.20;96.00;;;;;;6238551;23;20078;-66
2023/10/14 10:04:45;;;;;;;6.25;2.15;;;17.20;96.10;;;;;;6236342;23;20047;-65
2023/10/14 10:07:55;;;;;;;4.28;1.40;;;17.20;96.10;;;;;;6238080;23;20397;-66
2023/10/14 10:10:42;;;;;;;6.68;2.58;;;17.30;96.20;;;;;;6238274;23;20012;-65
2023/10/14 10:13:29;;;;;;;4.95;2.10;;;17.30;95.90;;;;;;6239421;23;20004;-65
2023/10/14 10:16:20;;;;;;;5.82;1.67;;;17.40;95.70;;;;;;6238689;23;20035;-66
2023/10/14 10:19:08;;;;;;;4.95;1.30;;;17.50;95.30;;;;;;6237527;23;20004;-65
2023/10/14 10:22:17;;;;;;;5.47;1.33;;;17.50;95.10;;;;;;6238258;23;20048;-65
2023/10/14 10:25:04;;;;;;;6.18;1.83;;;17.60;94.80;;;;;;6238133;23;20016;-65
2023/10/14 10:27:52;;;;;;;7.05;2.00;;;17.60;94.50;;;;;;6237832;23;20016;-65
2023/10/14 10:30:46;;;;;;;7.78;2.25;;;17.70;93.70;;;;;;6239167;23;20012;-65
2023/10/14 10:33:52;;;;;;;2.97;1.60;;;17.70;93.80;;;;;;6237951;23;20013;-65
2023/10/14 10:36:38;;;;;;;5.40;1.38;;;17.90;94.10;;;;;;6237615;23;20016;-65
2023/10/14 10:39:25;;;;;;;7.47;1.63;;;18.00;94.00;;;;;;6236154;23;20082;-65
2023/10/14 10:42:11;;;;;;;3.70;1.40;;;18.10;93.80;;;;;;6237564;23;20383;-66
2023/10/14 10:44:58;;;;;;;5.18;2.03;;;18.20;93.60;;;;;;6238539;23;20083;-65
2023/10/14 10:47:45;;;;;;;9.93;2.38;;;18.30;93.20;;;;;;6239418;23;20532;-66
2023/10/14 10:50:36;;;;;;;3.40;1.45;;;18.30;92.90;;;;;;6237491;23;20008;-66
2023/10/14 10:53:23;;;;;;;5.47;1.55;;;18.40;92.60;;;;;;6238833;23;20013;-66
2023/10/14 10:56:13;;;;;;;5.97;1.80;;;18.40;92.50;;;;;;6238111;23;20057;-66
2023/10/14 10:59:01;;;;;;;6.68;1.80;;;18.40;92.20;;;;;;6237170;23;20008;-66
2023/10/14 11:01:54;;;;;;;7.30;2.17;;;18.30;92.20;;;;;;6238982;23;20203;-65
2023/10/14 11:04:45;;;;;;;7.88;1.45;;;18.40;91.90;;;;;;6239362;23;20019;-67
2023/10/14 11:07:32;;;;;;;3.58;1.67;;;18.30;91.60;;;;;;6240430;23;20020;-67
2023/10/14 11:10:29;;;;;;;4.13;1.48;;;18.30;91.50;;;;;;6240097;23;20036;-66
2023/10/14 11:13:18;;;;;;;5.93;1.80;;;18.30;91.40;;;;;;6240370;23;20078;-66
2023/10/14 11:16:12;;;;;;;6.15;1.40;;;18.30;91.30;;;;;;6240127;23;20012;-66
2023/10/14 11:18:58;;;;;;;6.57;1.52;;;18.30;91.40;;;;;;6239543;23;20016;-66
2023/10/14 11:21:44;;;;;;;4.25;1.90;;;18.30;91.50;;;;;;6240709;23;20035;-67
2023/10/14 11:24:31;;;;;;;4.55;1.70;;;18.30;91.30;;;;;;6240413;23;20012;-67
2023/10/14 11:27:17;;;;;;;6.22;2.17;;;18.20;91.10;;;;;;6240166;23;20024;-67
2023/10/14 11:30:06;;;;;;;10.05;2.42;;;18.20;91.00;;;;;;6217863;23;20015;-68
2023/10/14 11:32:52;;;;;;;7.53;2.47;;;18.20;90.90;;;;;;6240443;23;20008;-67
2023/10/14 11:35:39;;;;;;;5.22;1.40;;;18.10;90.80;;;;;;6238711;23;20012;-68
2023/10/14 11:38:25;;;;;;;7.45;1.67;;;18.10;90.80;;;;;;6240489;23;20013;-68
2023/10/14 11:41:12;;;;;;;8.85;2.25;;;18.00;90.40;;;;;;6239652;23;20031;-68
2023/10/14 11:44:04;;;;;;;5.10;1.40;;;18.00;90.20;;;;;;6241213;23;20039;-67
2023/10/14 11:46:50;;;;;;;4.90;1.60;;;18.00;89.60;;;;;;6239217;23;20020;-67
2023/10/14 11:49:36;;;;;;;12.65;2.55;;;18.00;89.60;;;;;;6218857;23;20011;-67
2023/10/14 11:52:23;;;;;;;7.35;2.03;;;18.00;89.80;;;;;;6218473;23;20027;-67
2023/10/14 11:55:16;;;;;;;3.20;1.55;;;17.90;89.20;;;;;;6239659;23;20068;-69
2023/10/14 11:58:04;;;;;;;7.28;1.67;;;17.90;88.50;;;;;;6240101;23;20023;-68
2023/10/14 12:00:50;;;;;;;4.35;1.45;;;18.00;88.00;;;;;;6240792;23;20004;-69
2023/10/14 12:03:37;;;;;;;7.90;1.65;;;18.00;89.00;;;;;;6240105;23;20012;-69
2023/10/14 12:06:23;;;;;;;5.72;1.90;;;18.00;89.30;;;;;;6239138;23;20016;-69
2023/10/14 12:09:10;;;;;;;7.05;1.50;;;18.00;89.00;;;;;;6240865;23;20350;-69
2023/10/14 12:11:56;;;;;;;4.05;1.60;;;18.00;89.10;;;;;;6241099;23;20335;-69
2023/10/14 12:14:42;;;;;;;3.75;1.70;;;18.00;88.90;;;;;;6239507;23;20506;-69
2023/10/14 12:17:28;;;;;;;7.18;2.03;;;18.00;88.40;;;;;;6239385;23;20389;-69
2023/10/14 12:20:14;;;;;;;7.10;1.90;;;17.90;88.70;;;;;;6240085;23;20483;-69
2023/10/14 12:23:01;;;;;;;9.82;2.00;;;17.90;88.70;;;;;;6239137;23;20012;-70
2023/10/14 12:25:49;;;;;;;6.03;1.48;;;17.80;88.40;;;;;;6217165;23;20012;-69
2023/10/14 12:28:34;;;;;;;3.78;1.35;;;17.70;88.20;;;;;;6237863;23;20012;-69
2023/10/14 12:31:20;;;;;;;6.15;1.65;;;17.80;88.70;;;;;;6240494;23;20498;-69
2023/10/14 12:34:10;;;;;;;3.20;1.40;;;17.90;89.00;;;;;;6239017;23;20016;-68
2023/10/14 12:36:56;;;;;;;6.78;1.85;;;18.00;88.30;;;;;;6240426;23;20011;-69
2023/10/14 12:39:43;;;;;;;6.53;1.63;;;18.10;87.50;;;;;;6238933;22;20087;-67
2023/10/14 12:42:59;;;;;;;6.60;2.05;;;18.10;87.00;;;;;;6240032;23;20012;-69
2023/10/14 12:45:36;;;;;;;6.00;1.80;;;18.20;86.30;;;;;;6238811;23;20012;-69
2023/10/14 12:48:24;;;;;;;5.70;1.75;;;18.20;86.60;;;;;;6237268;23;20022;-69
2023/10/14 12:51:14;;;;;;;6.82;2.25;;;18.10;85.70;;;;;;6241258;23;20012;-70
2023/10/14 12:54:01;;;;;;;5.13;1.50;;;18.20;85.60;;;;;;6237796;23;20035;-69
2023/10/14 12:56:47;;;;;;;7.72;2.20;;;18.20;86.10;;;;;;6239527;22;20343;-69
2023/10/14 12:59:36;;;;;;;4.28;1.67;;;18.20;86.60;;;;;;6239775;23;20047;-69
2023/10/14 13:02:22;;;;;;;5.57;1.40;;;18.30;86.50;;;;;;6238516;23;20087;-69
2023/10/14 13:05:13;;;;;;;5.30;1.50;;;18.40;86.30;;;;;;6239941;23;20012;-70
2023/10/14 13:07:59;;;;;;;13.80;3.28;;;18.50;86.40;;;;;;6238343;23;20528;-68
2023/10/14 13:10:46;;;;;;;9.35;3.28;;;18.60;86.40;;;;;;6238055;23;20008;-69
2023/10/14 13:13:34;;;;;;;5.50;2.50;;;18.70;86.70;;;;;;6239615;23;20090;-68
2023/10/14 13:16:20;;;;;;;3.92;1.52;;;18.80;86.80;;;;;;6239388;23;20062;-69
2023/10/14 13:19:07;;;;;;;4.40;1.63;;;18.80;85.30;;;;;;6239109;23;20008;-69
2023/10/14 13:21:55;;;;;;;2.80;1.40;;;18.80;85.80;;;;;;6218630;23;20012;-69
2023/10/14 13:24:49;;;;;;;3.97;1.23;;;18.80;85.10;;;;;;6237298;23;20012;-69
2023/10/14 13:27:35;;;;;;;17.30;1.98;;;18.80;84.50;;;;;;6239482;23;20030;-73
2023/10/14 13:30:22;;;;;;;7.43;2.30;;;18.80;84.50;;;;;;6239225;23;20008;-69
2023/10/14 13:33:08;;;;;;;6.07;1.83;;;18.90;85.00;;;;;;6238945;23;20082;-68
2023/10/14 13:35:55;;;;;;;5.65;1.60;;;18.90;84.30;;;;;;6238372;23;20008;-70
2023/10/14 13:38:42;;;;;;;4.53;1.60;;;18.90;83.80;;;;;;6238226;23;20012;-68
2023/10/14 13:41:27;;;;;;;3.05;1.50;;;18.80;83.40;;;;;;6237348;23;20095;-67
2023/10/14 13:44:17;;;;;;;5.07;1.45;;;18.70;82.00;;;;;;6238511;23;20417;-68
2023/10/14 13:47:04;;;;;;;5.13;1.38;;;18.60;82.60;;;;;;6239900;23;20052;-67
2023/10/14 13:49:50;;;;;;;4.55;1.40;;;18.60;83.20;;;;;;6239460;23;20016;-69
2023/10/14 13:52:36;;;;;;;4.25;1.92;;;18.60;82.60;;;;;;6238212;23;20012;-68
2023/10/14 13:55:23;;;;;;;5.03;1.95;;;18.50;82.10;;;;;;6237150;22;20008;-69
2023/10/14 13:58:12;;;;;;;4.22;1.50;;;18.40;81.80;;;;;;6238278;23;20518;-69
2023/10/14 14:01:00;;;;;;;7.05;1.75;;;18.40;81.90;;;;;;6217408;23;20066;-69
2023/10/14 14:03:57;;;;;;;5.32;1.70;;;18.40;81.20;;;;;;6236090;23;20074;-69
2023/10/14 14:06:43;;;;;;;4.85;2.47;;;18.30;81.20;;;;;;6239043;23;20019;-69
2023/10/14 14:09:30;;;;;;;4.10;1.23;;;18.30;81.90;;;;;;6238870;23;20434;-70
2023/10/14 14:12:16;;;;;;;9.13;2.53;;;18.20;81.60;;;;;;6238994;23;20016;-69
2023/10/14 14:15:06;;;;;;;4.25;1.75;;;18.20;82.00;;;;;;6236532;23;20462;-69
2023/10/14 14:17:52;;;;;;;6.65;1.92;;;18.10;82.40;;;;;;6239969;23;20019;-70
2023/10/14 14:20:40;;;;;;;9.55;2.35;;;18.10;82.60;;;;;;6239514;23;20015;-69
2023/10/14 14:23:27;;;;;;;5.35;1.80;;;18.20;82.70;;;;;;6237708;23;20089;-71
2023/10/14 14:26:19;;;;;;;7.97;1.90;;;18.10;82.90;;;;;;6238987;23;20023;-68
2023/10/14 14:29:09;;;;;;;3.33;1.38;;;18.20;83.50;;;;;;6237535;23;20054;-69
2023/10/14 14:31:55;;;;;;;6.10;1.65;;;18.10;83.20;;;;;;6239334;23;20362;-69
2023/10/14 14:34:42;;;;;;;6.40;1.67;;;18.10;82.40;;;;;;6236438;23;20345;-68
2023/10/14 14:37:28;;;;;;;8.50;1.83;;;18.00;83.00;;;;;;6239937;23;20016;-70
2023/10/14 14:40:14;;;;;;;4.22;1.83;;;17.90;82.00;;;;;;6239444;23;20020;-68
2023/10/14 14:43:00;;;;;;;5.25;1.67;;;17.90;81.40;;;;;;6240374;23;20433;-69
2023/10/14 14:45:46;;;;;;;6.47;2.00;;;17.70;80.90;;;;;;6240519;23;20031;-69
2023/10/14 14:48:32;;;;;;;7.28;1.63;;;17.40;82.10;;;;;;6239758;23;20019;-69
2023/10/14 14:51:18;;;;;;;3.53;1.60;;;17.20;83.80;;;;;;6238530;23;20008;-69